Time;durP1;ratioP1;P1;durP2;ratioP2;P2;SDS_P1;SDS_P2;PMS_P1;PMS_P2;Temp;Humidity;BMP_temperature;BMP_pressure;BME280_temperature;BME280_humidity;BME280_pressure;Samples;Min_cycle;Max_cycle;Signal;HPM_P1;HPM_P2
2023/10/29 00:00:28;;;;;;;27.27;18.07;;;11.30;99.90;;;;;;10244998;28;20246;-85
2023/10/29 00:05:31;;;;;;;21.27;15.03;;;11.40;99.90;;;;;;10227378;28;20288;-86
2023/10/29 00:10:34;;;;;;;29.27;19.53;;;11.70;99.90;;;;;;10230637;29;20240;-86
2023/10/29 00:15:54;;;;;;;25.47;18.30;;;11.80;99.90;;;;;;10257583;28;20227;-86
2023/10/29 00:20:56;;;;;;;23.73;17.07;;;11.30;99.90;;;;;;10248976;28;20321;-85
2023/10/29 00:26:16;;;;;;;20.27;14.83;;;11.50;99.90;;;;;;10227237;29;20268;-85
2023/10/29 00:31:24;;;;;;;22.87;15.37;;;11.60;99.90;;;;;;10210236;29;20238;-85
2023/10/29 00:36:27;;;;;;;34.77;22.13;;;11.60;99.90;;;;;;10243072;29;20237;-86
2023/10/29 00:41:30;;;;;;;34.10;21.70;;;11.50;99.90;;;;;;10225483;28;20268;-86
2023/10/29 00:46:33;;;;;;;22.77;14.50;;;11.60;99.90;;;;;;10225634;28;20300;-85
2023/10/29 00:51:36;;;;;;;26.60;18.43;;;11.40;99.90;;;;;;10229430;29;20702;-85
2023/10/29 00:56:39;;;;;;;29.63;20.00;;;11.50;99.90;;;;;;10246289;28;20234;-86
2023/10/29 01:01:41;;;;;;;24.23;17.00;;;11.50;99.90;;;;;;10233093;29;20270;-85
2023/10/29 01:06:46;;;;;;;25.10;16.83;;;11.70;99.90;;;;;;10246116;28;20886;-86
2023/10/29 01:11:48;;;;;;;29.23;18.87;;;11.70;99.90;;;;;;10258777;28;20205;-86
2023/10/29 01:16:51;;;;;;;39.20;22.53;;;11.60;99.90;;;;;;10277001;28;20288;-85
2023/10/29 01:21:54;;;;;;;24.03;16.97;;;11.60;99.90;;;;;;10216160;29;20312;-86
2023/10/29 01:26:56;;;;;;;29.17;18.00;;;11.40;99.90;;;;;;10227180;29;20724;-86
2023/10/29 01:31:59;;;;;;;28.13;18.23;;;11.30;99.90;;;;;;10246486;28;20649;-86
2023/10/29 01:37:01;;;;;;;22.77;16.13;;;11.20;99.90;;;;;;10236413;29;20757;-86
2023/10/29 01:42:05;;;;;;;18.97;14.03;;;11.10;99.90;;;;;;10235855;29;20262;-86
2023/10/29 01:47:08;;;;;;;21.17;14.77;;;11.20;99.90;;;;;;10230117;29;20239;-86
2023/10/29 01:52:10;;;;;;;17.33;11.60;;;11.10;99.90;;;;;;10217967;29;20281;-86
2023/10/29 01:57:13;;;;;;;19.10;13.53;;;11.00;99.90;;;;;;10253686;29;20239;-86
2023/10/29 02:02:15;;;;;;;17.33;12.43;;;11.00;99.90;;;;;;10235189;29;20785;-86
2023/10/29 02:07:18;;;;;;;14.50;11.63;;;11.10;99.90;;;;;;10252742;28;20249;-86
2023/10/29 02:12:20;;;;;;;15.17;11.53;;;11.10;99.90;;;;;;10252711;29;20235;-86
2023/10/29 02:17:25;;;;;;;12.20;9.00;;;11.00;99.90;;;;;;10234473;29;20250;-86
2023/10/29 02:22:30;;;;;;;18.10;11.53;;;11.00;99.90;;;;;;10234967;29;20269;-86
2023/10/29 02:27:33;;;;;;;16.63;12.40;;;11.10;99.90;;;;;;10234362;29;20807;-86
2023/10/29 02:32:35;;;;;;;14.53;10.07;;;10.80;99.90;;;;;;10196013;29;20211;-86
2023/10/29 02:37:38;;;;;;;12.77;10.17;;;10.60;99.90;;;;;;10224082;29;20239;-86
2023/10/29 02:42:40;;;;;;;15.73;11.23;;;10.50;99.90;;;;;;10234129;29;20308;-86
2023/10/29 02:47:43;;;;;;;12.67;9.37;;;10.30;99.90;;;;;;10216459;29;20242;-86
2023/10/29 02:52:45;;;;;;;13.17;10.50;;;10.30;99.90;;;;;;10251065;29;20226;-86
2023/10/29 02:57:48;;;;;;;15.90;11.40;;;10.20;99.90;;;;;;10251205;29;20242;-86
2023/10/29 03:02:50;;;;;;;15.80;10.53;;;10.00;99.90;;;;;;10251479;28;20317;-86
2023/10/29 03:07:53;;;;;;;15.90;10.20;;;9.80;99.90;;;;;;10245208;29;20242;-86
2023/10/29 03:12:55;;;;;;;11.37;9.40;;;9.70;99.90;;;;;;10250761;29;20242;-86
2023/10/29 03:17:58;;;;;;;15.50;10.30;;;9.60;99.90;;;;;;10250085;29;20300;-86
2023/10/29 03:23:00;;;;;;;14.80;10.43;;;9.50;99.90;;;;;;10249643;29;20928;-86
2023/10/29 03:28:03;;;;;;;10.37;7.73;;;9.50;99.90;;;;;;10249995;29;20266;-86
2023/10/29 03:33:07;;;;;;;14.47;10.93;;;9.50;99.90;;;;;;10249585;29;21005;-86
2023/10/29 03:38:09;;;;;;;15.37;10.40;;;9.40;99.90;;;;;;10248166;29;20763;-86
2023/10/29 03:43:12;;;;;;;11.63;9.67;;;9.30;99.90;;;;;;10232063;29;20270;-86
2023/10/29 03:48:15;;;;;;;13.10;9.07;;;9.40;99.90;;;;;;10247991;29;20305;-86
2023/10/29 03:53:18;;;;;;;11.93;8.93;;;9.50;99.90;;;;;;10231416;29;20234;-86
2023/10/29 03:58:20;;;;;;;14.10;9.33;;;9.70;99.90;;;;;;10231144;29;20241;-86
2023/10/29 04:03:23;;;;;;;12.10;7.90;;;9.80;99.90;;;;;;10247455;29;20270;-85
2023/10/29 04:08:25;;;;;;;12.13;9.10;;;10.00;99.90;;;;;;10248221;29;20249;-86
2023/10/29 04:13:28;;;;;;;14.30;10.40;;;9.90;99.90;;;;;;10248706;29;20241;-85
2023/10/29 04:18:31;;;;;;;17.93;10.27;;;9.80;99.90;;;;;;10248014;29;20242;-86
2023/10/29 04:23:37;;;;;;;13.10;9.43;;;9.60;99.90;;;;;;10247325;29;20316;-86
2023/10/29 04:28:40;;;;;;;15.27;10.10;;;9.50;99.90;;;;;;10248188;29;21161;-86
2023/10/29 04:33:45;;;;;;;13.77;9.20;;;9.50;99.90;;;;;;10229642;29;20324;-86
2023/10/29 04:38:48;;;;;;;12.77;10.10;;;9.50;99.90;;;;;;10247614;29;20227;-86
2023/10/29 04:43:50;;;;;;;11.03;7.87;;;9.40;99.90;;;;;;10246176;29;20258;-86
2023/10/29 04:48:53;;;;;;;14.57;10.00;;;9.40;99.90;;;;;;10247130;28;20236;-86
2023/10/29 04:53:56;;;;;;;15.70;9.87;;;9.40;99.90;;;;;;10246771;29;20688;-86
2023/10/29 04:58:58;;;;;;;11.67;9.87;;;9.30;99.90;;;;;;10245262;29;20245;-86
2023/10/29 05:04:01;;;;;;;10.97;9.70;;;9.30;99.90;;;;;;10246483;29;20680;-86
2023/10/29 05:09:03;;;;;;;12.40;9.00;;;9.50;99.90;;;;;;10228529;29;20642;-86
2023/10/29 05:14:06;;;;;;;13.63;8.93;;;9.70;99.90;;;;;;10246489;29;20234;-86
2023/10/29 05:19:09;;;;;;;11.20;9.00;;;9.70;99.90;;;;;;10245707;28;20241;-86
2023/10/29 05:24:11;;;;;;;9.23;7.47;;;10.00;99.90;;;;;;10246097;29;20254;-86
2023/10/29 05:29:14;;;;;;;15.33;11.37;;;9.90;99.90;;;;;;10244233;28;20295;-86
2023/10/29 05:34:16;;;;;;;11.93;9.20;;;10.10;99.90;;;;;;10244973;28;20289;-86
2023/10/29 05:39:19;;;;;;;16.57;9.23;;;10.10;99.90;;;;;;10244909;29;20237;-86
2023/10/29 05:44:21;;;;;;;11.63;8.60;;;10.10;99.90;;;;;;10244056;29;20255;-86
2023/10/29 05:49:24;;;;;;;15.67;8.50;;;10.10;99.90;;;;;;10245522;29;20692;-87
2023/10/29 05:54:26;;;;;;;10.23;8.57;;;10.20;99.90;;;;;;10245789;28;20277;-86
2023/10/29 05:59:31;;;;;;;13.57;9.20;;;10.30;99.90;;;;;;10244067;28;20241;-86
2023/10/29 06:04:34;;;;;;;8.03;6.83;;;10.50;99.90;;;;;;10245157;29;20254;-86
2023/10/29 06:09:37;;;;;;;8.30;7.43;;;10.60;99.90;;;;;;10243485;29;20230;-86
2023/10/29 06:14:40;;;;;;;12.53;7.30;;;10.50;99.90;;;;;;10244290;29;20230;-86
2023/10/29 06:19:43;;;;;;;7.97;5.93;;;10.90;99.90;;;;;;10246416;28;20308;-86
2023/10/29 06:24:46;;;;;;;9.27;7.53;;;11.10;99.90;;;;;;10234106;29;20719;-86
2023/10/29 06:29:49;;;;;;;9.73;7.60;;;11.20;99.90;;;;;;10252430;28;20237;-86
2023/10/29 06:34:51;;;;;;;11.43;6.57;;;11.00;99.90;;;;;;10251069;29;20295;-86
2023/10/29 06:39:54;;;;;;;8.27;6.87;;;10.90;99.90;;;;;;10249621;29;20241;-86
2023/10/29 06:44:56;;;;;;;7.93;6.73;;;10.90;99.90;;;;;;10211984;29;20321;-86
2023/10/29 06:49:59;;;;;;;6.80;5.03;;;11.00;99.90;;;;;;10212487;29;20239;-86
2023/10/29 06:55:01;;;;;;;8.90;5.43;;;11.10;99.90;;;;;;10249984;29;20263;-87
2023/10/29 07:00:05;;;;;;;8.40;6.53;;;11.40;99.90;;;;;;10249779;28;20317;-86
2023/10/29 07:05:07;;;;;;;6.87;5.37;;;11.40;99.90;;;;;;10250800;29;20784;-86
2023/10/29 07:10:10;;;;;;;5.93;5.43;;;11.50;99.90;;;;;;10249996;29;20289;-86
2023/10/29 07:15:12;;;;;;;6.60;4.60;;;11.60;99.90;;;;;;10249740;28;20912;-87
2023/10/29 07:20:15;;;;;;;7.03;4.77;;;11.80;99.90;;;;;;10249212;29;20620;-86
2023/10/29 07:25:17;;;;;;;5.77;5.13;;;12.00;99.90;;;;;;10249653;28;20323;-86
2023/10/29 07:30:20;;;;;;;5.33;4.80;;;12.40;99.90;;;;;;10248803;28;20688;-86
2023/10/29 07:35:22;;;;;;;7.07;4.97;;;12.20;99.90;;;;;;10248920;29;20282;-86
2023/10/29 07:40:25;;;;;;;7.47;5.47;;;12.40;99.90;;;;;;10248372;29;20609;-86
2023/10/29 07:45:27;;;;;;;8.43;5.70;;;12.50;99.90;;;;;;10247432;29;20716;-85
2023/10/29 07:50:30;;;;;;;8.00;4.60;;;12.40;99.90;;;;;;10248252;29;20227;-86
2023/10/29 07:55:33;;;;;;;6.13;4.43;;;12.40;99.90;;;;;;10249223;29;20234;-86
2023/10/29 08:00:36;;;;;;;7.10;4.83;;;12.40;99.90;;;;;;10248422;28;20234;-86
2023/10/29 08:05:38;;;;;;;5.77;4.93;;;12.30;99.90;;;;;;10230226;29;20261;-86
2023/10/29 08:10:41;;;;;;;8.13;4.43;;;12.20;99.90;;;;;;10244628;29;20967;-86
2023/10/29 08:15:43;;;;;;;6.60;4.30;;;12.20;99.90;;;;;;10248032;29;20298;-86
2023/10/29 08:20:46;;;;;;;6.53;4.37;;;12.60;99.90;;;;;;10247836;29;20242;-86
2023/10/29 08:25:48;;;;;;;6.37;4.30;;;12.80;99.90;;;;;;10245935;28;20301;-86
2023/10/29 08:30:51;;;;;;;7.60;4.73;;;12.90;99.90;;;;;;10246472;28;20635;-86
2023/10/29 08:35:54;;;;;;;6.47;4.30;;;13.10;99.90;;;;;;10244983;28;20239;-85
2023/10/29 08:40:56;;;;;;;4.90;4.27;;;13.10;99.90;;;;;;10246401;28;20277;-85
2023/10/29 08:45:59;;;;;;;6.30;4.33;;;12.90;99.90;;;;;;10245777;28;20258;-85
2023/10/29 08:51:01;;;;;;;7.23;5.03;;;13.00;99.90;;;;;;10246701;29;20713;-86
2023/10/29 08:56:05;;;;;;;4.87;4.17;;;13.00;99.90;;;;;;10246952;29;20739;-85
2023/10/29 09:01:09;;;;;;;7.97;5.00;;;13.20;99.90;;;;;;10241801;29;20263;-85
2023/10/29 09:06:12;;;;;;;8.87;4.77;;;13.30;99.90;;;;;;10224770;29;20262;-85
2023/10/29 09:11:15;;;;;;;5.40;4.27;;;13.60;99.90;;;;;;10237513;28;20206;-86
2023/10/29 09:16:18;;;;;;;6.87;4.57;;;13.80;99.90;;;;;;10229647;29;20244;-86
2023/10/29 09:21:20;;;;;;;8.57;4.83;;;13.70;99.90;;;;;;10231869;29;20678;-86
2023/10/29 09:26:23;;;;;;;6.53;4.93;;;13.90;99.90;;;;;;10228097;28;20269;-86
2023/10/29 09:31:25;;;;;;;8.03;4.07;;;13.80;99.90;;;;;;10245269;29;20619;-86
2023/10/29 09:36:28;;;;;;;6.00;3.13;;;13.70;99.90;;;;;;10250512;28;20242;-86
2023/10/29 09:41:31;;;;;;;6.63;4.67;;;13.90;99.90;;;;;;10235536;28;20240;-86
2023/10/29 09:46:36;;;;;;;6.80;4.17;;;13.80;99.90;;;;;;10226456;29;20239;-86
2023/10/29 09:51:41;;;;;;;9.07;4.87;;;14.00;99.90;;;;;;10244757;29;20675;-86
2023/10/29 09:56:44;;;;;;;7.67;4.40;;;14.30;99.90;;;;;;10242611;29;20362;-86
2023/10/29 10:01:47;;;;;;;4.77;3.40;;;14.50;99.90;;;;;;10253022;28;20390;-86
2023/10/29 10:06:59;;;;;;;4.67;3.67;;;14.80;99.90;;;;;;10245592;28;20285;-87
2023/10/29 10:12:05;;;;;;;5.23;3.10;;;14.90;99.90;;;;;;10240178;28;20242;-86
2023/10/29 10:17:12;;;;;;;7.33;4.00;;;15.00;99.90;;;;;;10232576;28;20301;-86
2023/10/29 10:22:34;;;;;;;5.13;3.20;;;15.30;99.90;;;;;;10251256;28;20241;-86
2023/10/29 10:27:54;;;;;;;4.50;3.17;;;15.30;99.90;;;;;;10245705;29;20305;-86
2023/10/29 10:33:22;;;;;;;3.50;3.20;;;15.30;99.90;;;;;;10249222;29;20241;-86
2023/10/29 10:38:25;;;;;;;4.10;3.13;;;15.10;99.90;;;;;;10248487;29;20267;-86
2023/10/29 10:43:28;;;;;;;6.07;3.10;;;15.10;99.90;;;;;;10249807;29;20307;-86
2023/10/29 10:48:31;;;;;;;4.13;3.50;;;15.00;99.90;;;;;;10249101;29;20233;-87
2023/10/29 10:53:35;;;;;;;5.17;3.00;;;14.90;99.90;;;;;;10222611;29;20235;-86
2023/10/29 10:58:39;;;;;;;4.73;2.90;;;14.90;99.90;;;;;;10242957;29;20285;-86
2023/10/29 11:03:45;;;;;;;5.10;3.00;;;14.90;99.90;;;;;;10247044;28;20716;-86
2023/10/29 11:08:49;;;;;;;4.83;3.17;;;14.80;99.90;;;;;;10248101;28;20303;-85
2023/10/29 11:14:07;;;;;;;6.70;3.00;;;14.80;99.90;;;;;;10247943;29;20229;-85
2023/10/29 11:19:35;;;;;;;4.90;3.37;;;14.50;99.90;;;;;;10218273;29;20705;-83
2023/10/29 11:24:38;;;;;;;7.27;3.50;;;14.50;99.90;;;;;;10240520;28;20246;-83
2023/10/29 11:29:43;;;;;;;6.97;3.00;;;14.60;99.90;;;;;;10241959;28;20238;-83
2023/10/29 11:34:45;;;;;;;8.63;4.30;;;14.70;99.90;;;;;;10250352;28;20261;-83
2023/10/29 11:39:48;;;;;;;6.20;3.83;;;14.90;99.90;;;;;;10249815;29;20280;-83
2023/10/29 11:45:30;;;;;;;4.83;3.50;;;14.90;99.90;;;;;;10249760;28;20257;-83
2023/10/29 11:50:33;;;;;;;6.30;3.67;;;15.00;99.90;;;;;;10249937;29;20233;-83
2023/10/29 11:55:44;;;;;;;3.83;2.80;;;14.80;99.90;;;;;;10249582;29;20593;-83
2023/10/29 12:00:47;;;;;;;3.83;2.67;;;14.90;99.90;;;;;;10248716;28;20246;-83
2023/10/29 12:05:54;;;;;;;18.50;14.50;;;14.70;99.90;;;;;;10231500;29;20313;-83
2023/10/29 12:10:57;;;;;;;25.70;20.50;;;14.70;99.90;;;;;;10248653;29;20244;-83
2023/10/29 12:16:02;;;;;;;4.70;3.77;;;14.70;99.90;;;;;;10247665;28;20253;-83
2023/10/29 12:21:11;;;;;;;6.03;2.90;;;14.80;99.90;;;;;;10247315;29;20238;-83
2023/10/29 12:26:14;;;;;;;7.10;3.57;;;14.90;99.90;;;;;;10229663;29;20250;-82
2023/10/29 12:31:24;;;;;;;5.83;3.50;;;14.70;99.90;;;;;;10246042;29;20231;-82
2023/10/29 12:36:27;;;;;;;3.37;2.60;;;14.60;99.90;;;;;;10247583;29;20238;-83
2023/10/29 12:41:31;;;;;;;6.07;2.27;;;14.40;99.90;;;;;;10246813;28;20257;-81
2023/10/29 12:46:34;;;;;;;4.80;2.30;;;14.50;99.90;;;;;;10246021;28;20756;-83
2023/10/29 12:51:41;;;;;;;3.80;1.70;;;14.70;99.90;;;;;;10214321;29;20239;-83
2023/10/29 12:56:51;;;;;;;7.00;2.60;;;14.80;99.90;;;;;;10247306;29;20285;-83
2023/10/29 13:01:56;;;;;;;10.40;3.07;;;14.90;99.90;;;;;;10247050;28;20293;-83
2023/10/29 13:07:11;;;;;;;7.53;2.90;;;14.60;99.90;;;;;;10229560;29;20340;-84
2023/10/29 13:12:14;;;;;;;7.13;2.90;;;14.60;99.90;;;;;;10215147;29;20258;-84
2023/10/29 13:17:17;;;;;;;5.27;3.07;;;14.70;99.90;;;;;;10228441;29;20231;-83
2023/10/29 13:22:21;;;;;;;5.07;3.20;;;14.90;99.90;;;;;;10244476;29;20234;-85
2023/10/29 13:27:25;;;;;;;7.00;4.43;;;14.80;99.90;;;;;;10249277;28;20789;-86
2023/10/29 13:32:27;;;;;;;6.13;3.47;;;15.10;99.90;;;;;;10292398;28;20256;-85
2023/10/29 13:37:30;;;;;;;12.10;4.93;;;14.90;99.90;;;;;;10231002;28;20258;-85
2023/10/29 13:42:33;;;;;;;9.00;5.53;;;14.90;99.90;;;;;;10239340;28;20285;-85
2023/10/29 13:47:35;;;;;;;18.27;9.20;;;14.70;99.90;;;;;;10248202;29;20302;-86
2023/10/29 13:52:38;;;;;;;7.50;4.70;;;14.50;99.90;;;;;;10263380;28;20288;-85
2023/10/29 13:57:40;;;;;;;5.43;3.00;;;14.80;99.90;;;;;;10230106;29;20297;-85
2023/10/29 14:02:43;;;;;;;13.87;10.13;;;14.60;99.90;;;;;;10246395;28;20290;-85
2023/10/29 14:07:45;;;;;;;5.60;3.27;;;14.60;99.90;;;;;;10239255;28;20262;-85
2023/10/29 14:12:48;;;;;;;10.03;4.47;;;14.60;99.90;;;;;;10253028;28;20214;-85
2023/10/29 14:17:52;;;;;;;6.73;3.63;;;14.50;99.90;;;;;;10245540;28;20241;-85
2023/10/29 14:22:55;;;;;;;7.70;3.80;;;14.40;99.90;;;;;;10245557;28;20242;-85
2023/10/29 14:28:00;;;;;;;8.40;4.13;;;14.60;99.90;;;;;;10249262;29;20265;-85
2023/10/29 14:33:03;;;;;;;6.60;4.00;;;14.50;99.90;;;;;;10239376;28;20230;-86
2023/10/29 14:38:08;;;;;;;6.47;3.77;;;14.60;99.90;;;;;;10246022;29;20287;-84
2023/10/29 14:43:10;;;;;;;6.20;4.90;;;14.50;99.90;;;;;;10248020;28;20234;-85
2023/10/29 14:48:23;;;;;;;6.50;3.50;;;14.40;99.90;;;;;;10249124;28;20736;-85
2023/10/29 14:53:26;;;;;;;8.47;4.53;;;14.20;99.90;;;;;;10231606;29;20644;-85
2023/10/29 14:58:28;;;;;;;12.73;5.00;;;14.30;99.90;;;;;;10246747;28;20203;-85
2023/10/29 15:03:31;;;;;;;9.97;5.47;;;14.20;99.90;;;;;;10247138;28;20226;-84
2023/10/29 15:08:33;;;;;;;13.10;11.40;;;14.20;99.90;;;;;;10248587;29;20230;-83
2023/10/29 15:13:36;;;;;;;14.13;9.40;;;14.10;99.90;;;;;;10246531;29;20228;-85
2023/10/29 15:18:50;;;;;;;38.10;24.10;;;14.10;99.90;;;;;;10243949;28;20864;-85
2023/10/29 15:23:53;;;;;;;41.77;26.63;;;14.00;99.90;;;;;;10249885;29;20784;-85
2023/10/29 15:28:55;;;;;;;31.10;19.63;;;14.20;99.90;;;;;;10249046;29;20262;-85
2023/10/29 15:33:58;;;;;;;35.13;22.97;;;13.80;99.90;;;;;;10243812;28;20296;-85
2023/10/29 15:39:01;;;;;;;38.30;22.67;;;13.60;99.90;;;;;;10250089;29;20699;-85
2023/10/29 15:44:04;;;;;;;27.77;18.83;;;13.60;99.90;;;;;;10232364;29;20262;-84
2023/10/29 15:49:07;;;;;;;21.27;15.73;;;13.50;99.90;;;;;;10238547;28;20294;-84
2023/10/29 15:54:09;;;;;;;10.57;8.07;;;13.50;99.90;;;;;;10238430;28;20258;-84
2023/10/29 15:59:12;;;;;;;16.10;10.83;;;13.60;99.90;;;;;;10246446;28;20231;-84
2023/10/29 16:04:15;;;;;;;13.23;8.73;;;13.60;99.90;;;;;;10247510;28;20253;-84
2023/10/29 16:09:18;;;;;;;17.90;9.43;;;13.50;99.90;;;;;;10243943;28;20238;-84
2023/10/29 16:14:20;;;;;;;12.70;9.40;;;13.50;99.90;;;;;;10224440;28;20242;-84
2023/10/29 16:19:23;;;;;;;12.03;9.40;;;13.40;99.90;;;;;;10249910;28;20615;-84
2023/10/29 16:24:28;;;;;;;24.77;14.60;;;13.40;99.90;;;;;;10276065;28;20309;-84
2023/10/29 16:29:30;;;;;;;20.97;14.07;;;13.70;99.90;;;;;;10230525;29;20273;-84
2023/10/29 16:34:33;;;;;;;14.07;9.90;;;13.40;99.90;;;;;;10232329;28;20297;-84
2023/10/29 16:39:36;;;;;;;33.60;21.80;;;13.50;99.90;;;;;;10206754;29;20305;-84
2023/10/29 16:44:38;;;;;;;14.53;9.87;;;13.60;99.90;;;;;;10234293;29;20301;-84
2023/10/29 16:49:40;;;;;;;15.63;10.30;;;13.60;99.90;;;;;;10253075;28;20680;-84
2023/10/29 16:54:45;;;;;;;14.17;11.67;;;13.40;99.90;;;;;;10246747;28;20843;-84
2023/10/29 16:59:47;;;;;;;24.03;18.83;;;13.30;99.90;;;;;;10223521;29;20305;-84
2023/10/29 17:04:51;;;;;;;13.33;8.97;;;13.40;99.90;;;;;;10210245;29;20262;-84
2023/10/29 17:09:55;;;;;;;18.77;15.50;;;13.40;99.90;;;;;;10241245;29;20262;-84
2023/10/29 17:14:57;;;;;;;12.83;10.53;;;13.40;99.90;;;;;;10212241;29;20291;-84
2023/10/29 17:20:00;;;;;;;20.73;14.97;;;13.40;99.90;;;;;;10246481;29;20242;-84
2023/10/29 17:25:03;;;;;;;14.77;11.03;;;13.40;99.90;;;;;;10243337;28;20290;-84
2023/10/29 17:30:06;;;;;;;11.00;8.13;;;13.40;99.90;;;;;;10244891;29;20225;-84
2023/10/29 17:35:09;;;;;;;14.07;9.87;;;13.40;99.90;;;;;;10245500;28;20253;-85
2023/10/29 17:40:12;;;;;;;11.10;7.50;;;13.50;99.90;;;;;;10222075;29;20648;-84
2023/10/29 17:45:16;;;;;;;14.87;10.93;;;13.50;99.90;;;;;;10228272;29;20269;-84
2023/10/29 17:50:19;;;;;;;21.10;16.20;;;13.70;99.90;;;;;;10243467;29;20230;-84
2023/10/29 17:55:21;;;;;;;22.03;16.40;;;13.70;99.90;;;;;;10242913;28;20293;-85
2023/10/29 18:00:24;;;;;;;21.53;16.97;;;13.80;99.90;;;;;;10248433;28;20293;-85
2023/10/29 18:05:26;;;;;;;15.53;12.37;;;13.80;99.90;;;;;;10212453;29;20305;-85
2023/10/29 18:10:29;;;;;;;13.30;11.10;;;13.50;99.90;;;;;;10235586;29;20227;-85
2023/10/29 18:15:31;;;;;;;13.27;9.27;;;13.50;99.90;;;;;;10271797;28;20237;-85
2023/10/29 18:20:36;;;;;;;11.77;10.10;;;13.40;99.90;;;;;;10275166;28;20952;-85
2023/10/29 18:25:38;;;;;;;14.17;11.97;;;13.50;99.90;;;;;;10251228;28;20726;-85
2023/10/29 18:30:41;;;;;;;12.67;8.33;;;13.40;99.90;;;;;;10218537;28;20965;-84
2023/10/29 18:35:44;;;;;;;12.10;8.57;;;13.40;99.90;;;;;;10251133;29;20300;-84
2023/10/29 18:40:47;;;;;;;15.77;8.90;;;13.50;99.90;;;;;;10249425;28;20269;-85
2023/10/29 18:45:49;;;;;;;14.93;10.63;;;13.50;99.90;;;;;;10238471;28;20310;-84
2023/10/29 18:51:01;;;;;;;12.70;9.40;;;13.50;99.90;;;;;;10251903;29;20234;-84
2023/10/29 18:56:04;;;;;;;15.67;11.60;;;13.50;99.90;;;;;;10251200;29;20238;-84
2023/10/29 19:01:09;;;;;;;16.33;12.00;;;13.40;99.90;;;;;;10250810;28;20250;-84
2023/10/29 19:06:13;;;;;;;12.47;8.87;;;13.50;99.90;;;;;;10250686;28;20259;-84
2023/10/29 19:11:15;;;;;;;14.70;8.27;;;13.60;99.90;;;;;;10233104;29;20273;-84
2023/10/29 19:16:18;;;;;;;14.53;8.10;;;13.50;99.90;;;;;;10250713;29;20237;-84
2023/10/29 19:21:21;;;;;;;13.47;7.57;;;13.60;99.90;;;;;;10250878;29;20633;-84
2023/10/29 19:26:24;;;;;;;10.87;7.33;;;13.70;99.90;;;;;;10232798;28;20266;-85
2023/10/29 19:31:26;;;;;;;10.23;7.80;;;13.50;99.90;;;;;;10250481;28;21017;-84
2023/10/29 19:36:29;;;;;;;9.07;6.80;;;13.90;99.90;;;;;;10210930;29;20599;-84
2023/10/29 19:41:32;;;;;;;9.43;7.10;;;13.70;99.90;;;;;;10232713;29;20230;-84
2023/10/29 19:46:34;;;;;;;10.87;7.40;;;13.60;99.90;;;;;;10215711;28;20725;-84
2023/10/29 19:51:37;;;;;;;10.93;7.90;;;13.70;99.90;;;;;;10248877;28;20230;-85
2023/10/29 19:56:42;;;;;;;11.50;7.00;;;13.60;99.90;;;;;;10249155;29;20234;-85
2023/10/29 20:01:45;;;;;;;9.70;7.30;;;13.70;99.90;;;;;;10231745;29;20255;-85
2023/10/29 20:06:48;;;;;;;12.37;8.37;;;13.70;99.90;;;;;;10231188;29;20253;-85
2023/10/29 20:11:50;;;;;;;11.87;5.97;;;13.80;99.90;;;;;;10248616;28;20780;-85
2023/10/29 20:16:54;;;;;;;14.10;8.40;;;13.70;99.90;;;;;;10233867;29;20287;-83
2023/10/29 20:21:57;;;;;;;9.53;6.70;;;13.60;99.90;;;;;;10232486;29;20280;-82
2023/10/29 20:27:00;;;;;;;10.73;6.90;;;13.70;99.90;;;;;;10228559;29;20270;-83
2023/10/29 20:32:04;;;;;;;7.70;6.20;;;13.70;99.90;;;;;;10252749;28;20238;-83
2023/10/29 20:37:06;;;;;;;11.63;6.67;;;13.60;99.90;;;;;;10266129;28;20230;-83
2023/10/29 20:42:09;;;;;;;11.07;7.27;;;13.50;99.90;;;;;;10246002;29;20245;-83
2023/10/29 20:47:12;;;;;;;8.87;6.40;;;13.50;99.90;;;;;;10244066;28;20238;-83
2023/10/29 20:52:16;;;;;;;8.70;6.40;;;13.40;99.90;;;;;;10246895;29;20695;-82
2023/10/29 20:57:18;;;;;;;9.43;5.10;;;13.50;99.90;;;;;;10260815;28;20233;-83
2023/10/29 21:02:21;;;;;;;8.27;5.07;;;13.30;99.90;;;;;;10211615;29;20246;-83
2023/10/29 21:07:24;;;;;;;6.97;6.27;;;13.40;99.90;;;;;;10245963;29;20255;-83
2023/10/29 21:12:26;;;;;;;7.17;5.10;;;13.40;99.90;;;;;;10246434;29;20314;-83
2023/10/29 21:17:29;;;;;;;5.47;4.97;;;13.50;99.90;;;;;;10245562;28;20288;-83
2023/10/29 21:22:31;;;;;;;9.63;5.63;;;13.70;99.90;;;;;;10229368;29;20291;-83
2023/10/29 21:27:35;;;;;;;7.80;5.37;;;13.80;99.90;;;;;;10245412;29;20774;-84
2023/10/29 21:32:42;;;;;;;9.80;5.67;;;13.80;99.90;;;;;;10246202;29;20672;-83
2023/10/29 21:37:45;;;;;;;7.40;5.43;;;14.00;99.90;;;;;;10229255;29;20245;-83
2023/10/29 21:42:47;;;;;;;8.73;5.57;;;13.60;99.90;;;;;;10246078;29;20234;-84
2023/10/29 21:47:50;;;;;;;10.40;6.43;;;13.70;99.90;;;;;;10246298;28;20263;-84
2023/10/29 21:52:52;;;;;;;7.30;5.33;;;13.70;99.90;;;;;;10251826;28;20699;-84
2023/10/29 21:57:55;;;;;;;8.70;5.70;;;13.80;99.90;;;;;;10252647;29;20244;-84
2023/10/29 22:02:59;;;;;;;12.50;6.43;;;14.00;99.90;;;;;;10235403;29;20313;-84
2023/10/29 22:08:04;;;;;;;7.53;5.77;;;13.80;99.90;;;;;;10236013;29;20254;-84
2023/10/29 22:13:06;;;;;;;7.03;5.77;;;13.90;99.90;;;;;;10230974;29;20298;-85
2023/10/29 22:18:09;;;;;;;9.83;5.47;;;13.70;99.90;;;;;;10242053;28;20693;-84
2023/10/29 22:23:12;;;;;;;8.67;5.93;;;13.60;99.90;;;;;;10234588;29;20304;-85
2023/10/29 22:28:14;;;;;;;6.73;5.63;;;13.50;99.90;;;;;;10234010;29;20254;-85
2023/10/29 22:33:17;;;;;;;11.10;6.90;;;13.30;99.90;;;;;;10221956;29;20226;-84
2023/10/29 22:38:20;;;;;;;11.60;7.90;;;13.20;99.90;;;;;;10232645;29;20293;-84
2023/10/29 22:43:22;;;;;;;11.47;7.63;;;13.40;99.90;;;;;;10223369;29;20242;-84
2023/10/29 22:48:25;;;;;;;11.87;7.40;;;13.10;99.90;;;;;;10222347;29;20289;-84
2023/10/29 22:53:27;;;;;;;11.97;9.33;;;13.10;99.90;;;;;;10228199;29;20222;-84
2023/10/29 22:58:30;;;;;;;11.23;8.30;;;13.00;99.90;;;;;;10228724;29;20226;-84
2023/10/29 23:03:32;;;;;;;9.70;6.87;;;13.10;99.90;;;;;;10240325;28;20242;-84
2023/10/29 23:08:35;;;;;;;12.97;9.13;;;13.20;99.90;;;;;;10234438;29;20263;-84
2023/10/29 23:13:37;;;;;;;12.23;8.37;;;13.20;99.90;;;;;;10233370;29;20265;-85
2023/10/29 23:18:40;;;;;;;15.33;10.23;;;13.10;99.90;;;;;;10235643;29;20247;-84
2023/10/29 23:23:43;;;;;;;8.57;7.40;;;13.30;99.90;;;;;;10215667;29;20242;-85
2023/10/29 23:28:45;;;;;;;15.00;5.67;;;13.00;99.90;;;;;;10214012;29;20316;-85
2023/10/29 23:33:49;;;;;;;13.70;6.37;;;12.90;99.90;;;;;;10220598;29;20290;-85
2023/10/29 23:38:51;;;;;;;9.20;5.63;;;12.90;99.90;;;;;;10241125;29;20234;-85
2023/10/29 23:43:54;;;;;;;7.90;5.43;;;13.00;99.90;;;;;;10212796;29;20229;-85
2023/10/29 23:48:56;;;;;;;6.47;5.10;;;13.00;99.90;;;;;;10233197;28;20275;-85
2023/10/29 23:53:59;;;;;;;6.37;4.43;;;13.00;99.90;;;;;;10231501;29;20291;-85
2023/10/29 23:59:01;;;;;;;6.93;4.93;;;13.00;99.90;;;;;;10223959;29;20704;-85
